VKG1624 ESSA-LGKO
Flight info
| Callsign | VKG1624 |
|---|---|
| Flight time | 3h 25m |
| Altitude | 32000 |
| Route | PETEV N872 KOXIM DCT PENOR/N0452F330 N133 POLON Z169 BABKO DCT DEMOP DCT PARAK DCT PELOV DCT RAXAD DCT RUGAS UN128 FSK UG18 MES UN139 LURUS UL995 KOPAR |
| Aircraft | A321/M-SDE3FGHIRWY/LB1 |
Departure
| Time | 2026-05-05 13:25 |
|---|---|
| Airport | Stockholm-Arlanda Airport (ESSA) |
Arrival
| Time | 2026-05-05 16:50 |
|---|---|
| Airport | Kos International Airport "Ippokratis" (LGKO) |
| Time | Latitude | Longitude | Altitude | Speed | Heading |
|---|---|---|---|---|---|
| 2026-05-05 13:00 | 59.64754 | 17.92451 | 112 ft | 0 kts | 43° |
| 2026-05-05 13:02 | 59.64754 | 17.92450 | 111 ft | 0 kts | 43° |
| 2026-05-05 13:02 | 59.64755 | 17.92453 | 113 ft | 0 kts | 41° |
| 2026-05-05 13:03 | 59.64754 | 17.92451 | 111 ft | 0 kts | 43° |
| 2026-05-05 13:16 | 59.64752 | 17.92445 | 111 ft | 3 kts | 43° |
| 2026-05-05 13:16 | 59.64731 | 17.92414 | 109 ft | 3 kts | 1° |
| 2026-05-05 13:16 | 59.64723 | 17.92413 | 109 ft | 3 kts | 346° |
| 2026-05-05 13:16 | 59.64710 | 17.92424 | 108 ft | 3 kts | 314° |
| 2026-05-05 13:17 | 59.64700 | 17.92460 | 110 ft | 0 kts | 282° |
| 2026-05-05 13:18 | 59.64701 | 17.92449 | 110 ft | 3 kts | 283° |
| 2026-05-05 13:18 | 59.64710 | 17.92382 | 111 ft | 7 kts | 285° |
| 2026-05-05 13:18 | 59.64727 | 17.92255 | 111 ft | 11 kts | 285° |
| 2026-05-05 13:19 | 59.64750 | 17.92112 | 109 ft | 10 kts | 300° |
| 2026-05-05 13:19 | 59.64813 | 17.92077 | 107 ft | 10 kts | 9° |
| 2026-05-05 13:19 | 59.64885 | 17.92103 | 106 ft | 12 kts | 10° |
| 2026-05-05 13:19 | 59.64971 | 17.92134 | 106 ft | 14 kts | 11° |
| 2026-05-05 13:20 | 59.65075 | 17.92172 | 107 ft | 16 kts | 10° |
| 2026-05-05 13:20 | 59.65195 | 17.92216 | 107 ft | 19 kts | 10° |
| 2026-05-05 13:20 | 59.65323 | 17.92260 | 105 ft | 19 kts | 11° |
| 2026-05-05 13:20 | 59.65451 | 17.92308 | 104 ft | 19 kts | 10° |
| 2026-05-05 13:21 | 59.65593 | 17.92361 | 104 ft | 21 kts | 10° |
| 2026-05-05 13:21 | 59.65733 | 17.92410 | 105 ft | 19 kts | 9° |
| 2026-05-05 13:21 | 59.65860 | 17.92455 | 107 ft | 19 kts | 11° |
| 2026-05-05 13:21 | 59.66008 | 17.92509 | 109 ft | 22 kts | 10° |
| 2026-05-05 13:22 | 59.66148 | 17.92560 | 112 ft | 19 kts | 11° |
| 2026-05-05 13:22 | 59.66264 | 17.92604 | 116 ft | 15 kts | 10° |
| 2026-05-05 13:22 | 59.66370 | 17.92641 | 119 ft | 18 kts | 10° |
| 2026-05-05 13:22 | 59.66482 | 17.92642 | 118 ft | 15 kts | 343° |
| 2026-05-05 13:23 | 59.66570 | 17.92579 | 120 ft | 12 kts | 339° |
| 2026-05-05 13:23 | 59.66617 | 17.92473 | 123 ft | 10 kts | 275° |
| 2026-05-05 13:23 | 59.66586 | 17.92360 | 122 ft | 10 kts | 200° |
| 2026-05-05 13:23 | 59.66519 | 17.92334 | 118 ft | 13 kts | 190° |
| 2026-05-05 13:24 | 59.66252 | 17.92236 | 118 ft | 74 kts | 190° |
| 2026-05-05 13:24 | 59.65563 | 17.91986 | 108 ft | 133 kts | 190° |
| 2026-05-05 13:24 | 59.64523 | 17.91614 | 110 ft | 177 kts | 190° |
| 2026-05-05 13:24 | 59.63156 | 17.91134 | 532 ft | 186 kts | 194° |
| 2026-05-05 13:25 | 59.61886 | 17.90686 | 1222 ft | 185 kts | 198° |
| 2026-05-05 13:25 | 59.60834 | 17.89399 | 1866 ft | 180 kts | 234° |
| 2026-05-05 13:25 | 59.60129 | 17.87316 | 2195 ft | 189 kts | 243° |
| 2026-05-05 13:25 | 59.59469 | 17.84940 | 2325 ft | 205 kts | 244° |
| 2026-05-05 13:26 | 59.58774 | 17.82372 | 2627 ft | 217 kts | 244° |
| 2026-05-05 13:26 | 59.58071 | 17.79682 | 3050 ft | 230 kts | 246° |
| 2026-05-05 13:26 | 59.57340 | 17.76736 | 3496 ft | 244 kts | 246° |
| 2026-05-05 13:26 | 59.56526 | 17.73762 | 4173 ft | 251 kts | 235° |
| 2026-05-05 13:27 | 59.55376 | 17.71199 | 4923 ft | 255 kts | 230° |
| 2026-05-05 13:27 | 59.54150 | 17.68649 | 5642 ft | 257 kts | 229° |
| 2026-05-05 13:27 | 59.52904 | 17.66098 | 6407 ft | 259 kts | 229° |
| 2026-05-05 13:27 | 59.51647 | 17.63543 | 7108 ft | 261 kts | 229° |
| 2026-05-05 13:28 | 59.50381 | 17.60969 | 7813 ft | 263 kts | 228° |
| 2026-05-05 13:28 | 59.49100 | 17.58374 | 8531 ft | 265 kts | 227° |
| 2026-05-05 13:28 | 59.47591 | 17.56273 | 9203 ft | 272 kts | 205° |
| 2026-05-05 13:28 | 59.45716 | 17.55517 | 9850 ft | 279 kts | 188° |
| 2026-05-05 13:29 | 59.43736 | 17.55256 | 10161 ft | 295 kts | 188° |
| 2026-05-05 13:29 | 59.41616 | 17.55005 | 10301 ft | 315 kts | 187° |
| 2026-05-05 13:29 | 59.39358 | 17.54756 | 10422 ft | 335 kts | 187° |
| 2026-05-05 13:29 | 59.36972 | 17.54499 | 10560 ft | 353 kts | 187° |
| 2026-05-05 13:30 | 59.34471 | 17.54222 | 10760 ft | 366 kts | 187° |
| 2026-05-05 13:30 | 59.31903 | 17.53941 | 11251 ft | 371 kts | 188° |
| 2026-05-05 13:30 | 59.29314 | 17.53657 | 11807 ft | 374 kts | 188° |
| 2026-05-05 13:30 | 59.26710 | 17.53370 | 12333 ft | 376 kts | 190° |
| 2026-05-05 13:31 | 59.24094 | 17.53082 | 12920 ft | 377 kts | 191° |
| 2026-05-05 13:31 | 59.21471 | 17.52791 | 13469 ft | 379 kts | 191° |
| 2026-05-05 13:31 | 59.18830 | 17.52495 | 13955 ft | 381 kts | 192° |
| 2026-05-05 13:31 | 59.16175 | 17.52195 | 14413 ft | 383 kts | 192° |
| 2026-05-05 13:32 | 59.13517 | 17.51891 | 14886 ft | 385 kts | 192° |
| 2026-05-05 13:32 | 59.10832 | 17.51583 | 15304 ft | 386 kts | 192° |
| 2026-05-05 13:32 | 59.08144 | 17.51281 | 15785 ft | 388 kts | 192° |
| 2026-05-05 13:32 | 59.05446 | 17.50982 | 16236 ft | 390 kts | 192° |
| 2026-05-05 13:33 | 59.02733 | 17.50680 | 16676 ft | 391 kts | 192° |
| 2026-05-05 13:33 | 59.00113 | 17.50389 | 17097 ft | 393 kts | 192° |
| 2026-05-05 13:33 | 58.97375 | 17.50083 | 17480 ft | 395 kts | 192° |
| 2026-05-05 13:33 | 58.94624 | 17.49774 | 17898 ft | 397 kts | 192° |
| 2026-05-05 13:34 | 58.91860 | 17.49465 | 18305 ft | 399 kts | 192° |
| 2026-05-05 13:34 | 58.89078 | 17.49154 | 18669 ft | 401 kts | 192° |
| 2026-05-05 13:34 | 58.87234 | 17.48948 | 18908 ft | 402 kts | 192° |
| 2026-05-05 13:34 | 58.84435 | 17.48635 | 19289 ft | 404 kts | 192° |
| 2026-05-05 13:35 | 58.81615 | 17.48316 | 19653 ft | 406 kts | 192° |
| 2026-05-05 13:35 | 58.78797 | 17.47999 | 20002 ft | 408 kts | 192° |
| 2026-05-05 13:35 | 58.75957 | 17.47688 | 20344 ft | 410 kts | 192° |
| 2026-05-05 13:35 | 58.73108 | 17.47382 | 20693 ft | 411 kts | 192° |
| 2026-05-05 13:36 | 58.70240 | 17.47073 | 21037 ft | 413 kts | 192° |
| 2026-05-05 13:36 | 58.67361 | 17.46759 | 21294 ft | 416 kts | 191° |
| 2026-05-05 13:36 | 58.64464 | 17.46445 | 21601 ft | 418 kts | 191° |
| 2026-05-05 13:36 | 58.61551 | 17.46131 | 21928 ft | 420 kts | 191° |
| 2026-05-05 13:37 | 58.58627 | 17.45808 | 22246 ft | 422 kts | 191° |
| 2026-05-05 13:37 | 58.55691 | 17.45478 | 22552 ft | 425 kts | 191° |
| 2026-05-05 13:37 | 58.52728 | 17.45150 | 22877 ft | 427 kts | 191° |
| 2026-05-05 13:37 | 58.49760 | 17.44826 | 23188 ft | 429 kts | 191° |
| 2026-05-05 13:38 | 58.46775 | 17.44503 | 23488 ft | 430 kts | 191° |
| 2026-05-05 13:38 | 58.43779 | 17.44183 | 23741 ft | 432 kts | 191° |
| 2026-05-05 13:38 | 58.40776 | 17.43859 | 23965 ft | 433 kts | 191° |
| 2026-05-05 13:38 | 58.37754 | 17.43532 | 24190 ft | 436 kts | 191° |
| 2026-05-05 13:39 | 58.34723 | 17.43208 | 24447 ft | 437 kts | 191° |
| 2026-05-05 13:39 | 58.31675 | 17.42881 | 24703 ft | 439 kts | 191° |
| 2026-05-05 13:39 | 58.28631 | 17.42553 | 25000 ft | 439 kts | 191° |
| 2026-05-05 13:39 | 58.25578 | 17.42228 | 25395 ft | 437 kts | 191° |
| 2026-05-05 13:40 | 58.22588 | 17.41916 | 25770 ft | 436 kts | 191° |
| 2026-05-05 13:40 | 58.19563 | 17.41604 | 26139 ft | 435 kts | 191° |
| 2026-05-05 13:40 | 58.16549 | 17.41291 | 26513 ft | 433 kts | 191° |
| 2026-05-05 13:40 | 58.13549 | 17.40976 | 26880 ft | 432 kts | 191° |
| 2026-05-05 13:41 | 58.10548 | 17.40654 | 27183 ft | 431 kts | 191° |
| 2026-05-05 13:41 | 58.07555 | 17.40326 | 27531 ft | 430 kts | 191° |
| 2026-05-05 13:41 | 58.04572 | 17.40005 | 27880 ft | 429 kts | 191° |
| 2026-05-05 13:41 | 58.01588 | 17.39686 | 28187 ft | 428 kts | 191° |
| 2026-05-05 13:42 | 57.98624 | 17.39374 | 28583 ft | 427 kts | 191° |
| 2026-05-05 13:42 | 57.95662 | 17.39068 | 28934 ft | 426 kts | 191° |
| 2026-05-05 13:42 | 57.92709 | 17.38759 | 29275 ft | 425 kts | 191° |
| 2026-05-05 13:42 | 57.89763 | 17.38448 | 29597 ft | 424 kts | 191° |
| 2026-05-05 13:43 | 57.86816 | 17.38140 | 29911 ft | 423 kts | 191° |
| 2026-05-05 13:43 | 57.83879 | 17.37830 | 30162 ft | 423 kts | 191° |
| 2026-05-05 13:43 | 57.80936 | 17.37519 | 30309 ft | 425 kts | 190° |
| 2026-05-05 13:43 | 57.77977 | 17.37209 | 30509 ft | 426 kts | 190° |
| 2026-05-05 13:44 | 57.75022 | 17.36905 | 30747 ft | 425 kts | 190° |
| 2026-05-05 13:44 | 57.72063 | 17.36598 | 31006 ft | 425 kts | 190° |
| 2026-05-05 13:44 | 57.69110 | 17.36290 | 31269 ft | 425 kts | 190° |
| 2026-05-05 13:44 | 57.66162 | 17.35986 | 31515 ft | 424 kts | 190° |
| 2026-05-05 13:45 | 57.63215 | 17.35683 | 31758 ft | 424 kts | 190° |
| 2026-05-05 13:45 | 57.60264 | 17.35380 | 31880 ft | 425 kts | 190° |
| 2026-05-05 13:45 | 57.54333 | 17.34767 | 31895 ft | 427 kts | 190° |
| 2026-05-05 13:46 | 57.48405 | 17.34150 | 31896 ft | 427 kts | 190° |
| 2026-05-05 13:46 | 57.42473 | 17.33549 | 31896 ft | 427 kts | 190° |
| 2026-05-05 13:47 | 57.36534 | 17.32951 | 31895 ft | 427 kts | 190° |
| 2026-05-05 13:47 | 57.30602 | 17.32343 | 31894 ft | 427 kts | 190° |
| 2026-05-05 13:48 | 57.24670 | 17.31735 | 31857 ft | 427 kts | 189° |
| 2026-05-05 13:48 | 57.18732 | 17.31127 | 31865 ft | 428 kts | 189° |
| 2026-05-05 13:49 | 57.12777 | 17.30526 | 31877 ft | 429 kts | 189° |
| 2026-05-05 13:49 | 57.06845 | 17.29952 | 31883 ft | 430 kts | 189° |
| 2026-05-05 13:50 | 57.00872 | 17.29346 | 31885 ft | 430 kts | 189° |
| 2026-05-05 13:50 | 56.94905 | 17.28738 | 31862 ft | 430 kts | 188° |
| 2026-05-05 13:51 | 56.88932 | 17.28142 | 31870 ft | 430 kts | 188° |
| 2026-05-05 13:51 | 56.82948 | 17.27551 | 31874 ft | 431 kts | 188° |
| 2026-05-05 13:52 | 56.76953 | 17.26962 | 31889 ft | 431 kts | 188° |
| 2026-05-05 13:52 | 56.70963 | 17.26375 | 31854 ft | 431 kts | 188° |
| 2026-05-05 13:53 | 56.64979 | 17.25790 | 31871 ft | 431 kts | 188° |
| 2026-05-05 13:53 | 56.58985 | 17.25207 | 31872 ft | 431 kts | 188° |
| 2026-05-05 13:54 | 56.52991 | 17.24632 | 31880 ft | 431 kts | 188° |
| 2026-05-05 13:54 | 56.46995 | 17.24047 | 31886 ft | 432 kts | 188° |
| 2026-05-05 13:55 | 56.41001 | 17.23452 | 31883 ft | 431 kts | 188° |
| 2026-05-05 13:55 | 56.35016 | 17.22872 | 31898 ft | 430 kts | 188° |
| 2026-05-05 13:56 | 56.29039 | 17.22300 | 31905 ft | 430 kts | 188° |
| 2026-05-05 13:56 | 56.23097 | 17.21738 | 31908 ft | 430 kts | 188° |
| 2026-05-05 13:57 | 56.17122 | 17.21165 | 31886 ft | 429 kts | 188° |
| 2026-05-05 13:57 | 56.11159 | 17.20590 | 31896 ft | 429 kts | 188° |
| 2026-05-05 13:58 | 56.05202 | 17.20027 | 31903 ft | 428 kts | 188° |
| 2026-05-05 13:58 | 55.99254 | 17.19452 | 31907 ft | 428 kts | 188° |
| 2026-05-05 13:59 | 55.90374 | 17.18613 | 31872 ft | 427 kts | 188° |
| 2026-05-05 14:00 | 55.82446 | 17.17876 | 31910 ft | 426 kts | 188° |
| 2026-05-05 14:00 | 55.75587 | 17.17238 | 31919 ft | 425 kts | 188° |
| 2026-05-05 14:01 | 55.69685 | 17.16679 | 31926 ft | 424 kts | 188° |
| 2026-05-05 14:01 | 55.63765 | 17.17103 | 31923 ft | 434 kts | 173° |
| 2026-05-05 14:02 | 55.57906 | 17.19992 | 31904 ft | 436 kts | 171° |
| 2026-05-05 14:02 | 55.52019 | 17.22480 | 31909 ft | 435 kts | 173° |
| 2026-05-05 14:03 | 55.46127 | 17.24860 | 31913 ft | 435 kts | 173° |
| 2026-05-05 14:03 | 55.40243 | 17.27384 | 31918 ft | 436 kts | 172° |
| 2026-05-05 14:04 | 55.34358 | 17.29971 | 31886 ft | 436 kts | 172° |
| 2026-05-05 14:04 | 55.28481 | 17.32539 | 31903 ft | 435 kts | 172° |
| 2026-05-05 14:05 | 55.22644 | 17.35064 | 31913 ft | 434 kts | 173° |
| 2026-05-05 14:05 | 55.16786 | 17.37584 | 31938 ft | 432 kts | 173° |
| 2026-05-05 14:06 | 55.10952 | 17.40086 | 31946 ft | 431 kts | 173° |
| 2026-05-05 14:06 | 55.05122 | 17.42565 | 31927 ft | 430 kts | 173° |
| 2026-05-05 14:07 | 54.99311 | 17.45033 | 31908 ft | 430 kts | 173° |
| 2026-05-05 14:07 | 54.93496 | 17.47498 | 31911 ft | 430 kts | 173° |
| 2026-05-05 14:08 | 54.87683 | 17.49973 | 31914 ft | 430 kts | 173° |
| 2026-05-05 14:08 | 54.81868 | 17.52436 | 31916 ft | 430 kts | 173° |
| 2026-05-05 14:09 | 54.76050 | 17.54881 | 31922 ft | 430 kts | 173° |
| 2026-05-05 14:09 | 54.70238 | 17.57319 | 31904 ft | 430 kts | 173° |
| 2026-05-05 14:10 | 54.64434 | 17.59756 | 31916 ft | 429 kts | 173° |
| 2026-05-05 14:10 | 54.58636 | 17.62170 | 31919 ft | 428 kts | 173° |
| 2026-05-05 14:11 | 54.52845 | 17.64589 | 31924 ft | 428 kts | 173° |
| 2026-05-05 14:11 | 54.47052 | 17.66999 | 31878 ft | 428 kts | 173° |
| 2026-05-05 14:12 | 54.41256 | 17.69402 | 31889 ft | 429 kts | 173° |
| 2026-05-05 14:12 | 54.35478 | 17.71784 | 31886 ft | 430 kts | 173° |
| 2026-05-05 14:13 | 54.29653 | 17.74161 | 31895 ft | 431 kts | 173° |
| 2026-05-05 14:13 | 54.23825 | 17.76554 | 31892 ft | 431 kts | 173° |
| 2026-05-05 14:14 | 54.17990 | 17.78964 | 31899 ft | 432 kts | 173° |
| 2026-05-05 14:14 | 54.12126 | 17.81355 | 31900 ft | 434 kts | 173° |
| 2026-05-05 14:15 | 54.06250 | 17.83746 | 31900 ft | 434 kts | 173° |
| 2026-05-05 14:15 | 54.00380 | 17.86137 | 31901 ft | 434 kts | 173° |
| 2026-05-05 14:16 | 53.94505 | 17.88502 | 31907 ft | 434 kts | 173° |
| 2026-05-05 14:16 | 53.88629 | 17.90869 | 31864 ft | 434 kts | 172° |
| 2026-05-05 14:17 | 53.82740 | 17.93240 | 31870 ft | 436 kts | 172° |
| 2026-05-05 14:17 | 53.76824 | 17.95615 | 31874 ft | 438 kts | 173° |
| 2026-05-05 14:18 | 53.70900 | 17.97994 | 31854 ft | 438 kts | 172° |
| 2026-05-05 14:18 | 53.64964 | 18.00351 | 31878 ft | 438 kts | 172° |
| 2026-05-05 14:19 | 53.59028 | 18.02704 | 31852 ft | 439 kts | 172° |
| 2026-05-05 14:19 | 53.53077 | 18.05063 | 31853 ft | 440 kts | 172° |
| 2026-05-05 14:20 | 53.47111 | 18.07428 | 31858 ft | 441 kts | 172° |
| 2026-05-05 14:20 | 53.41129 | 18.09787 | 31860 ft | 442 kts | 172° |
| 2026-05-05 14:21 | 53.35146 | 18.12132 | 31836 ft | 442 kts | 172° |
| 2026-05-05 14:21 | 53.29147 | 18.14484 | 31839 ft | 444 kts | 172° |
| 2026-05-05 14:22 | 53.23129 | 18.16839 | 31843 ft | 445 kts | 172° |
| 2026-05-05 14:22 | 53.17104 | 18.19187 | 31830 ft | 445 kts | 172° |
| 2026-05-05 14:23 | 53.12092 | 18.21134 | 31838 ft | 445 kts | 172° |
| 2026-05-05 14:23 | 53.05079 | 18.23844 | 31831 ft | 445 kts | 172° |
| 2026-05-05 14:24 | 52.99029 | 18.26175 | 31838 ft | 447 kts | 172° |
| 2026-05-05 14:24 | 52.92957 | 18.28525 | 31839 ft | 448 kts | 172° |
| 2026-05-05 14:25 | 52.87862 | 18.30485 | 31844 ft | 449 kts | 172° |
| 2026-05-05 14:25 | 52.81776 | 18.32814 | 31816 ft | 449 kts | 172° |
| 2026-05-05 14:26 | 52.75685 | 18.35144 | 31822 ft | 450 kts | 172° |
| 2026-05-05 14:26 | 52.69574 | 18.37468 | 31809 ft | 451 kts | 172° |
| 2026-05-05 14:27 | 52.63470 | 18.39782 | 31825 ft | 450 kts | 172° |
| 2026-05-05 14:27 | 52.57374 | 18.42090 | 31823 ft | 449 kts | 172° |
| 2026-05-05 14:28 | 52.51278 | 18.44390 | 31810 ft | 450 kts | 172° |
| 2026-05-05 14:28 | 52.45214 | 18.46675 | 31802 ft | 450 kts | 172° |
| 2026-05-05 14:29 | 52.39101 | 18.48977 | 31801 ft | 451 kts | 172° |
| 2026-05-05 14:29 | 52.32980 | 18.51272 | 31813 ft | 451 kts | 172° |
| 2026-05-05 14:30 | 52.26820 | 18.53569 | 31769 ft | 451 kts | 171° |
| 2026-05-05 14:30 | 52.20696 | 18.55844 | 31776 ft | 451 kts | 171° |
| 2026-05-05 14:31 | 52.14618 | 18.58108 | 31787 ft | 451 kts | 171° |
| 2026-05-05 14:31 | 52.08501 | 18.60367 | 31783 ft | 451 kts | 171° |
| 2026-05-05 14:32 | 52.02382 | 18.62614 | 31781 ft | 451 kts | 171° |
| 2026-05-05 14:32 | 51.96268 | 18.64868 | 31782 ft | 451 kts | 171° |
| 2026-05-05 14:33 | 51.90152 | 18.67126 | 31778 ft | 451 kts | 171° |
| 2026-05-05 14:33 | 51.84039 | 18.69370 | 31778 ft | 450 kts | 171° |
| 2026-05-05 14:34 | 51.77923 | 18.71598 | 31775 ft | 450 kts | 171° |
| 2026-05-05 14:34 | 51.71807 | 18.73815 | 31754 ft | 451 kts | 170° |
| 2026-05-05 14:35 | 51.65687 | 18.76039 | 31758 ft | 451 kts | 170° |
| 2026-05-05 14:35 | 51.59572 | 18.78259 | 31762 ft | 451 kts | 170° |
| 2026-05-05 14:36 | 51.53453 | 18.80464 | 31769 ft | 451 kts | 170° |
| 2026-05-05 14:36 | 51.47331 | 18.82662 | 31756 ft | 451 kts | 170° |
| 2026-05-05 14:37 | 51.41213 | 18.84860 | 31757 ft | 451 kts | 170° |
| 2026-05-05 14:37 | 51.35085 | 18.87051 | 31764 ft | 451 kts | 170° |
| 2026-05-05 14:38 | 51.28957 | 18.89238 | 31771 ft | 451 kts | 170° |
| 2026-05-05 14:38 | 51.22831 | 18.91423 | 31771 ft | 451 kts | 170° |
| 2026-05-05 14:39 | 51.16705 | 18.93604 | 31765 ft | 451 kts | 170° |
| 2026-05-05 14:39 | 51.10576 | 18.95768 | 31775 ft | 451 kts | 171° |
| 2026-05-05 14:40 | 51.04492 | 18.97923 | 31773 ft | 451 kts | 170° |
| 2026-05-05 14:40 | 50.98366 | 19.00088 | 31771 ft | 451 kts | 171° |
| 2026-05-05 14:41 | 50.92240 | 19.02239 | 31770 ft | 451 kts | 170° |
| 2026-05-05 14:41 | 50.86117 | 19.04388 | 31783 ft | 450 kts | 171° |
| 2026-05-05 14:42 | 50.79997 | 19.06523 | 31789 ft | 450 kts | 171° |
| 2026-05-05 14:42 | 50.73885 | 19.08641 | 31780 ft | 449 kts | 171° |
| 2026-05-05 14:43 | 50.67795 | 19.10755 | 31768 ft | 449 kts | 170° |
| 2026-05-05 14:43 | 50.61704 | 19.12876 | 31803 ft | 448 kts | 170° |
| 2026-05-05 14:44 | 50.55621 | 19.14986 | 31805 ft | 447 kts | 170° |
| 2026-05-05 14:44 | 50.49543 | 19.17082 | 31803 ft | 447 kts | 170° |
| 2026-05-05 14:45 | 50.43465 | 19.19170 | 31797 ft | 447 kts | 170° |
| 2026-05-05 14:45 | 50.37389 | 19.21242 | 31798 ft | 446 kts | 170° |
| 2026-05-05 14:46 | 50.31323 | 19.23316 | 31793 ft | 446 kts | 170° |
| 2026-05-05 14:46 | 50.25249 | 19.25394 | 31795 ft | 447 kts | 170° |
| 2026-05-05 14:47 | 50.19178 | 19.27462 | 31791 ft | 447 kts | 171° |
| 2026-05-05 14:47 | 50.13134 | 19.29512 | 31797 ft | 447 kts | 170° |
| 2026-05-05 14:48 | 50.07008 | 19.31585 | 31810 ft | 448 kts | 171° |
| 2026-05-05 14:48 | 50.00913 | 19.33652 | 31813 ft | 448 kts | 170° |
| 2026-05-05 14:49 | 49.94861 | 19.35691 | 31823 ft | 448 kts | 171° |
| 2026-05-05 14:49 | 49.88772 | 19.37743 | 31835 ft | 447 kts | 171° |
| 2026-05-05 14:50 | 49.82692 | 19.39777 | 31835 ft | 446 kts | 171° |
| 2026-05-05 14:50 | 49.76634 | 19.41797 | 31860 ft | 445 kts | 170° |
| 2026-05-05 14:51 | 49.70581 | 19.43811 | 31858 ft | 445 kts | 170° |
| 2026-05-05 14:51 | 49.64542 | 19.45813 | 31884 ft | 443 kts | 172° |
| 2026-05-05 14:52 | 49.58525 | 19.47894 | 31880 ft | 443 kts | 169° |
| 2026-05-05 14:52 | 49.52577 | 19.50389 | 31885 ft | 443 kts | 168° |
| 2026-05-05 14:53 | 49.46663 | 19.53010 | 31896 ft | 441 kts | 168° |
| 2026-05-05 14:53 | 49.40745 | 19.55545 | 31871 ft | 441 kts | 167° |
| 2026-05-05 14:54 | 49.34821 | 19.57994 | 31877 ft | 442 kts | 168° |
| 2026-05-05 14:54 | 49.28882 | 19.60446 | 31879 ft | 442 kts | 167° |
| 2026-05-05 14:55 | 49.22936 | 19.62917 | 31886 ft | 443 kts | 167° |
| 2026-05-05 14:55 | 49.16985 | 19.65386 | 31894 ft | 443 kts | 167° |
| 2026-05-05 14:56 | 49.11046 | 19.67837 | 31916 ft | 442 kts | 167° |
| 2026-05-05 14:56 | 49.05101 | 19.70283 | 31916 ft | 442 kts | 168° |
| 2026-05-05 14:57 | 48.99158 | 19.72728 | 31917 ft | 442 kts | 168° |
| 2026-05-05 14:57 | 48.93226 | 19.75161 | 31920 ft | 441 kts | 168° |
| 2026-05-05 14:58 | 48.87336 | 19.77562 | 31917 ft | 442 kts | 167° |
| 2026-05-05 14:58 | 48.81397 | 19.79976 | 31926 ft | 442 kts | 167° |
| 2026-05-05 14:59 | 48.75451 | 19.82399 | 31925 ft | 443 kts | 167° |
| 2026-05-05 14:59 | 48.69498 | 19.84817 | 31922 ft | 443 kts | 167° |
| 2026-05-05 15:00 | 48.64500 | 19.86846 | 31929 ft | 443 kts | 168° |
| 2026-05-05 15:00 | 48.57581 | 19.89638 | 31925 ft | 445 kts | 167° |
| 2026-05-05 15:01 | 48.54583 | 19.90843 | 32063 ft | 448 kts | 168° |
| 2026-05-05 15:01 | 48.51574 | 19.92055 | 32327 ft | 448 kts | 167° |
| 2026-05-05 15:01 | 48.48571 | 19.93269 | 32592 ft | 447 kts | 167° |
| 2026-05-05 15:01 | 48.45562 | 19.94482 | 32859 ft | 447 kts | 167° |
| 2026-05-05 15:02 | 48.42561 | 19.95688 | 33086 ft | 447 kts | 167° |
| 2026-05-05 15:02 | 48.39554 | 19.96893 | 33339 ft | 447 kts | 167° |
| 2026-05-05 15:02 | 48.36546 | 19.98097 | 33564 ft | 447 kts | 167° |
| 2026-05-05 15:02 | 48.33544 | 19.99298 | 33834 ft | 447 kts | 167° |
| 2026-05-05 15:03 | 48.27532 | 20.01691 | 33929 ft | 447 kts | 167° |
| 2026-05-05 15:03 | 48.21529 | 20.04077 | 33929 ft | 446 kts | 167° |
| 2026-05-05 15:04 | 48.15457 | 20.05740 | 33929 ft | 443 kts | 181° |
| 2026-05-05 15:04 | 48.09284 | 20.05855 | 33929 ft | 443 kts | 181° |
| 2026-05-05 15:05 | 48.00079 | 20.06025 | 33926 ft | 443 kts | 180° |
| 2026-05-05 15:06 | 47.93904 | 20.06145 | 33915 ft | 444 kts | 181° |
| 2026-05-05 15:06 | 47.87728 | 20.06268 | 33922 ft | 444 kts | 181° |
| 2026-05-05 15:07 | 47.81542 | 20.06382 | 33929 ft | 444 kts | 181° |
| 2026-05-05 15:07 | 47.75360 | 20.06494 | 33927 ft | 445 kts | 181° |
| 2026-05-05 15:08 | 47.69169 | 20.06608 | 33924 ft | 445 kts | 181° |
| 2026-05-05 15:08 | 47.62985 | 20.06726 | 33936 ft | 445 kts | 181° |
| 2026-05-05 15:09 | 47.56790 | 20.06839 | 33924 ft | 445 kts | 181° |
| 2026-05-05 15:09 | 47.50596 | 20.06957 | 33916 ft | 446 kts | 181° |
| 2026-05-05 15:10 | 47.44393 | 20.07076 | 33917 ft | 446 kts | 181° |
| 2026-05-05 15:10 | 47.38189 | 20.07191 | 33917 ft | 446 kts | 181° |
| 2026-05-05 15:11 | 47.31979 | 20.07302 | 33916 ft | 446 kts | 181° |
| 2026-05-05 15:11 | 47.25772 | 20.07421 | 33909 ft | 446 kts | 181° |
| 2026-05-05 15:12 | 47.20610 | 20.07516 | 33909 ft | 447 kts | 181° |
| 2026-05-05 15:12 | 47.14393 | 20.07633 | 33910 ft | 447 kts | 181° |
| 2026-05-05 15:13 | 47.07124 | 20.07764 | 33923 ft | 447 kts | 181° |
| 2026-05-05 15:13 | 47.01955 | 20.07862 | 33927 ft | 447 kts | 181° |
| 2026-05-05 15:14 | 46.95733 | 20.07984 | 33924 ft | 448 kts | 181° |
| 2026-05-05 15:14 | 46.89501 | 20.08106 | 33922 ft | 448 kts | 181° |
| 2026-05-05 15:15 | 46.83264 | 20.08206 | 33917 ft | 448 kts | 181° |
| 2026-05-05 15:15 | 46.77019 | 20.08312 | 33919 ft | 448 kts | 181° |
| 2026-05-05 15:16 | 46.70777 | 20.08430 | 33915 ft | 448 kts | 181° |
| 2026-05-05 15:16 | 46.64537 | 20.08554 | 33913 ft | 449 kts | 181° |
| 2026-05-05 15:17 | 46.58299 | 20.08665 | 33914 ft | 449 kts | 181° |
| 2026-05-05 15:17 | 46.52051 | 20.08777 | 33920 ft | 449 kts | 181° |
| 2026-05-05 15:18 | 46.45808 | 20.08899 | 33924 ft | 449 kts | 181° |
| 2026-05-05 15:18 | 46.39561 | 20.09005 | 33913 ft | 449 kts | 181° |
| 2026-05-05 15:19 | 46.33306 | 20.09105 | 33911 ft | 450 kts | 181° |
| 2026-05-05 15:19 | 46.27045 | 20.09219 | 33913 ft | 450 kts | 181° |
| 2026-05-05 15:20 | 46.20825 | 20.09336 | 33910 ft | 450 kts | 181° |
| 2026-05-05 15:20 | 46.14622 | 20.10752 | 33907 ft | 456 kts | 163° |
| 2026-05-05 15:21 | 46.08774 | 20.14327 | 33904 ft | 456 kts | 158° |
| 2026-05-05 15:21 | 46.02966 | 20.18077 | 33911 ft | 459 kts | 158° |
| 2026-05-05 15:22 | 45.97125 | 20.21862 | 33932 ft | 461 kts | 158° |
| 2026-05-05 15:22 | 45.91269 | 20.25646 | 33927 ft | 461 kts | 158° |
| 2026-05-05 15:23 | 45.85413 | 20.29405 | 33932 ft | 461 kts | 158° |
| 2026-05-05 15:23 | 45.79553 | 20.33158 | 33930 ft | 461 kts | 158° |
| 2026-05-05 15:24 | 45.73688 | 20.36899 | 33919 ft | 461 kts | 158° |
| 2026-05-05 15:24 | 45.67825 | 20.40628 | 33923 ft | 462 kts | 158° |
| 2026-05-05 15:25 | 45.61950 | 20.44366 | 33929 ft | 462 kts | 158° |
| 2026-05-05 15:25 | 45.56073 | 20.48101 | 33930 ft | 462 kts | 158° |
| 2026-05-05 15:26 | 45.50188 | 20.51828 | 33928 ft | 462 kts | 158° |
| 2026-05-05 15:26 | 45.44302 | 20.55546 | 33932 ft | 463 kts | 158° |
| 2026-05-05 15:27 | 45.38409 | 20.59269 | 33934 ft | 464 kts | 158° |
| 2026-05-05 15:27 | 45.32504 | 20.62984 | 33941 ft | 464 kts | 158° |
| 2026-05-05 15:28 | 45.26603 | 20.66685 | 33936 ft | 464 kts | 158° |
| 2026-05-05 15:28 | 45.20684 | 20.70386 | 33939 ft | 465 kts | 158° |
| 2026-05-05 15:29 | 45.14798 | 20.74053 | 33942 ft | 466 kts | 158° |
| 2026-05-05 15:29 | 45.08862 | 20.77752 | 33955 ft | 466 kts | 158° |
| 2026-05-05 15:30 | 45.02926 | 20.81445 | 33945 ft | 466 kts | 158° |
| 2026-05-05 15:30 | 44.96989 | 20.85124 | 33944 ft | 467 kts | 158° |
| 2026-05-05 15:31 | 44.91000 | 20.88674 | 33948 ft | 467 kts | 160° |
| 2026-05-05 15:31 | 44.84926 | 20.91944 | 33951 ft | 467 kts | 161° |
| 2026-05-05 15:32 | 44.78841 | 20.95158 | 33958 ft | 467 kts | 161° |
| 2026-05-05 15:32 | 44.72768 | 20.98428 | 33958 ft | 467 kts | 160° |
| 2026-05-05 15:33 | 44.66700 | 21.01745 | 33954 ft | 467 kts | 160° |
| 2026-05-05 15:33 | 44.60637 | 21.05036 | 33954 ft | 467 kts | 160° |
| 2026-05-05 15:34 | 44.54564 | 21.08309 | 33940 ft | 468 kts | 161° |
| 2026-05-05 15:34 | 44.48488 | 21.11588 | 33955 ft | 468 kts | 160° |
| 2026-05-05 15:35 | 44.42400 | 21.14871 | 33959 ft | 469 kts | 160° |
| 2026-05-05 15:35 | 44.36310 | 21.18140 | 33949 ft | 469 kts | 161° |
| 2026-05-05 15:36 | 44.30214 | 21.21393 | 33952 ft | 470 kts | 161° |
| 2026-05-05 15:36 | 44.24100 | 21.24649 | 33955 ft | 471 kts | 161° |
| 2026-05-05 15:37 | 44.17980 | 21.27913 | 33965 ft | 471 kts | 160° |
| 2026-05-05 15:37 | 44.11854 | 21.31173 | 33955 ft | 472 kts | 161° |
| 2026-05-05 15:38 | 44.05711 | 21.34424 | 33961 ft | 472 kts | 161° |
| 2026-05-05 15:38 | 43.99568 | 21.37677 | 33962 ft | 473 kts | 161° |
| 2026-05-05 15:39 | 43.93420 | 21.40931 | 33960 ft | 473 kts | 161° |
| 2026-05-05 15:39 | 43.87268 | 21.44178 | 33964 ft | 474 kts | 161° |
| 2026-05-05 15:40 | 43.81097 | 21.47420 | 33970 ft | 474 kts | 161° |
| 2026-05-05 15:40 | 43.74919 | 21.50650 | 33966 ft | 474 kts | 161° |
| 2026-05-05 15:41 | 43.68786 | 21.53854 | 33958 ft | 475 kts | 161° |
| 2026-05-05 15:41 | 43.62595 | 21.57097 | 33961 ft | 476 kts | 161° |
| 2026-05-05 15:42 | 43.56389 | 21.60337 | 34219 ft | 478 kts | 161° |
| 2026-05-05 15:42 | 43.53282 | 21.61951 | 34424 ft | 478 kts | 161° |
| 2026-05-05 15:42 | 43.50170 | 21.63567 | 34640 ft | 478 kts | 161° |
| 2026-05-05 15:42 | 43.47066 | 21.65180 | 34850 ft | 477 kts | 161° |
| 2026-05-05 15:43 | 43.43954 | 21.66793 | 34965 ft | 478 kts | 161° |
| 2026-05-05 15:43 | 43.37733 | 21.70017 | 34976 ft | 477 kts | 161° |
| 2026-05-05 15:44 | 43.31505 | 21.73233 | 34974 ft | 478 kts | 161° |
| 2026-05-05 15:44 | 43.25284 | 21.76439 | 34970 ft | 478 kts | 161° |
| 2026-05-05 15:45 | 43.19057 | 21.79641 | 34979 ft | 478 kts | 161° |
| 2026-05-05 15:45 | 43.12827 | 21.82834 | 34984 ft | 478 kts | 161° |
| 2026-05-05 15:46 | 43.06592 | 21.86024 | 34991 ft | 478 kts | 161° |
| 2026-05-05 15:46 | 43.00356 | 21.89205 | 34990 ft | 479 kts | 161° |
| 2026-05-05 15:47 | 42.94104 | 21.92393 | 34990 ft | 480 kts | 161° |
| 2026-05-05 15:47 | 42.87848 | 21.95581 | 34994 ft | 480 kts | 161° |
| 2026-05-05 15:48 | 42.81595 | 21.98761 | 35002 ft | 480 kts | 161° |
| 2026-05-05 15:48 | 42.75325 | 22.01931 | 34999 ft | 480 kts | 161° |
| 2026-05-05 15:49 | 42.69051 | 22.05099 | 35000 ft | 481 kts | 161° |
| 2026-05-05 15:49 | 42.62774 | 22.08267 | 35012 ft | 482 kts | 161° |
| 2026-05-05 15:50 | 42.56497 | 22.11437 | 35015 ft | 482 kts | 161° |
| 2026-05-05 15:50 | 42.50213 | 22.14590 | 35033 ft | 482 kts | 161° |
| 2026-05-05 15:51 | 42.43921 | 22.17733 | 35030 ft | 482 kts | 161° |
| 2026-05-05 15:51 | 42.37628 | 22.20874 | 35023 ft | 482 kts | 161° |
| 2026-05-05 15:52 | 42.31332 | 22.24012 | 35013 ft | 483 kts | 161° |
| 2026-05-05 15:52 | 42.25122 | 22.27325 | 35016 ft | 484 kts | 159° |
| 2026-05-05 15:53 | 42.18943 | 22.30942 | 35005 ft | 484 kts | 158° |
| 2026-05-05 15:53 | 42.12756 | 22.34570 | 35002 ft | 485 kts | 158° |
| 2026-05-05 15:54 | 42.06538 | 22.38109 | 35005 ft | 486 kts | 159° |
| 2026-05-05 15:54 | 42.00291 | 22.41603 | 35009 ft | 486 kts | 159° |
| 2026-05-05 15:55 | 41.94043 | 22.45105 | 35004 ft | 487 kts | 159° |
| 2026-05-05 15:55 | 41.87784 | 22.48620 | 35018 ft | 488 kts | 159° |
| 2026-05-05 15:56 | 41.81521 | 22.52134 | 35018 ft | 488 kts | 159° |
| 2026-05-05 15:56 | 41.75255 | 22.55646 | 35003 ft | 488 kts | 159° |
| 2026-05-05 15:57 | 41.68974 | 22.59165 | 35005 ft | 490 kts | 159° |
| 2026-05-05 15:57 | 41.62681 | 22.62669 | 35013 ft | 490 kts | 159° |
| 2026-05-05 15:58 | 41.56386 | 22.66159 | 35010 ft | 490 kts | 159° |
| 2026-05-05 15:58 | 41.50131 | 22.69630 | 34994 ft | 491 kts | 159° |
| 2026-05-05 15:59 | 41.43825 | 22.73121 | 34991 ft | 491 kts | 159° |
| 2026-05-05 15:59 | 41.37504 | 22.76616 | 34994 ft | 492 kts | 159° |
| 2026-05-05 16:00 | 41.31333 | 22.80539 | 35001 ft | 493 kts | 147° |
| 2026-05-05 16:00 | 41.25591 | 22.85545 | 34991 ft | 494 kts | 147° |
| 2026-05-05 16:01 | 41.20808 | 22.89695 | 34992 ft | 494 kts | 148° |
| 2026-05-05 16:01 | 41.15030 | 22.94677 | 34990 ft | 495 kts | 148° |
| 2026-05-05 16:02 | 41.09310 | 22.99740 | 34992 ft | 495 kts | 142° |
| 2026-05-05 16:02 | 41.03975 | 23.05505 | 34978 ft | 496 kts | 141° |
| 2026-05-05 16:03 | 40.98625 | 23.11279 | 34995 ft | 497 kts | 141° |
| 2026-05-05 16:03 | 40.93253 | 23.17053 | 34996 ft | 498 kts | 141° |
| 2026-05-05 16:04 | 40.87867 | 23.22832 | 34998 ft | 498 kts | 141° |
| 2026-05-05 16:04 | 40.82494 | 23.28588 | 35002 ft | 498 kts | 141° |
| 2026-05-05 16:05 | 40.77110 | 23.34346 | 34982 ft | 499 kts | 141° |
| 2026-05-05 16:05 | 40.71715 | 23.40094 | 34993 ft | 500 kts | 141° |
| 2026-05-05 16:06 | 40.66299 | 23.45853 | 35020 ft | 500 kts | 141° |
| 2026-05-05 16:06 | 40.60877 | 23.51607 | 35029 ft | 500 kts | 141° |
| 2026-05-05 16:07 | 40.55459 | 23.57350 | 35027 ft | 500 kts | 141° |
| 2026-05-05 16:07 | 40.50044 | 23.63088 | 35015 ft | 501 kts | 141° |
| 2026-05-05 16:08 | 40.44610 | 23.68817 | 35013 ft | 501 kts | 141° |
| 2026-05-05 16:08 | 40.39162 | 23.74531 | 35013 ft | 502 kts | 141° |
| 2026-05-05 16:09 | 40.33697 | 23.80254 | 35027 ft | 503 kts | 141° |
| 2026-05-05 16:09 | 40.28235 | 23.85982 | 35029 ft | 503 kts | 141° |
| 2026-05-05 16:10 | 40.22770 | 23.91713 | 35032 ft | 503 kts | 141° |
| 2026-05-05 16:10 | 40.17292 | 23.97431 | 35033 ft | 503 kts | 141° |
| 2026-05-05 16:11 | 40.11808 | 24.03126 | 35042 ft | 503 kts | 141° |
| 2026-05-05 16:12 | 40.00840 | 24.14494 | 35041 ft | 504 kts | 141° |
| 2026-05-05 16:13 | 39.87117 | 24.28700 | 35042 ft | 504 kts | 141° |
| 2026-05-05 16:13 | 39.81607 | 24.34368 | 35040 ft | 504 kts | 141° |
| 2026-05-05 16:14 | 39.70585 | 24.45677 | 35048 ft | 505 kts | 141° |
| 2026-05-05 16:15 | 39.59569 | 24.56929 | 35042 ft | 506 kts | 141° |
| 2026-05-05 16:16 | 39.48479 | 24.68197 | 35044 ft | 507 kts | 141° |
| 2026-05-05 16:17 | 39.40152 | 24.76643 | 35043 ft | 507 kts | 141° |
| 2026-05-05 16:18 | 39.31820 | 24.85062 | 35049 ft | 507 kts | 141° |
| 2026-05-05 16:19 | 39.23469 | 24.93458 | 35051 ft | 507 kts | 142° |
| 2026-05-05 16:19 | 39.15114 | 25.01849 | 35070 ft | 507 kts | 142° |
| 2026-05-05 16:20 | 39.03967 | 25.13002 | 35066 ft | 507 kts | 142° |
| 2026-05-05 16:22 | 38.90027 | 25.26893 | 35046 ft | 508 kts | 142° |
| 2026-05-05 16:23 | 38.78840 | 25.37978 | 35064 ft | 508 kts | 142° |
| 2026-05-05 16:23 | 38.70463 | 25.46246 | 35061 ft | 507 kts | 142° |
| 2026-05-05 16:24 | 38.64870 | 25.51759 | 35037 ft | 507 kts | 142° |
| 2026-05-05 16:25 | 38.56506 | 25.59979 | 35056 ft | 508 kts | 142° |
| 2026-05-05 16:25 | 38.48088 | 25.68224 | 35071 ft | 508 kts | 142° |
| 2026-05-05 16:26 | 38.36879 | 25.79191 | 35054 ft | 508 kts | 142° |
| 2026-05-05 16:27 | 38.31271 | 25.84658 | 35058 ft | 508 kts | 143° |
| 2026-05-05 16:27 | 38.25526 | 25.89880 | 35059 ft | 507 kts | 152° |
| 2026-05-05 16:28 | 38.19133 | 25.93606 | 35062 ft | 505 kts | 158° |
| 2026-05-05 16:28 | 38.12706 | 25.97244 | 35059 ft | 505 kts | 158° |
| 2026-05-05 16:29 | 38.06287 | 26.00885 | 35054 ft | 505 kts | 158° |
| 2026-05-05 16:29 | 37.99858 | 26.04504 | 35051 ft | 505 kts | 158° |
| 2026-05-05 16:30 | 37.93421 | 26.08093 | 35051 ft | 506 kts | 158° |
| 2026-05-05 16:30 | 37.86983 | 26.11684 | 35036 ft | 506 kts | 158° |
| 2026-05-05 16:31 | 37.83754 | 26.13488 | 34819 ft | 508 kts | 158° |
| 2026-05-05 16:31 | 37.80515 | 26.15297 | 34581 ft | 508 kts | 158° |
| 2026-05-05 16:31 | 37.77281 | 26.17101 | 34336 ft | 509 kts | 158° |
| 2026-05-05 16:31 | 37.74041 | 26.18906 | 34111 ft | 509 kts | 158° |
| 2026-05-05 16:32 | 37.70795 | 26.20707 | 33584 ft | 511 kts | 158° |
| 2026-05-05 16:32 | 37.67503 | 26.22532 | 32496 ft | 519 kts | 158° |
| 2026-05-05 16:32 | 37.64186 | 26.24371 | 31522 ft | 524 kts | 158° |
| 2026-05-05 16:32 | 37.60834 | 26.26234 | 30587 ft | 529 kts | 157° |
| 2026-05-05 16:33 | 37.57453 | 26.28110 | 29401 ft | 533 kts | 158° |
| 2026-05-05 16:33 | 37.54093 | 26.29971 | 28159 ft | 521 kts | 158° |
| 2026-05-05 16:33 | 37.50839 | 26.31775 | 27244 ft | 503 kts | 158° |
| 2026-05-05 16:33 | 37.47668 | 26.33523 | 26101 ft | 493 kts | 158° |
| 2026-05-05 16:34 | 37.44515 | 26.35253 | 24936 ft | 494 kts | 158° |
| 2026-05-05 16:34 | 37.41366 | 26.36981 | 23887 ft | 497 kts | 157° |
| 2026-05-05 16:34 | 37.38178 | 26.38730 | 22857 ft | 501 kts | 157° |
| 2026-05-05 16:34 | 37.34990 | 26.40484 | 22081 ft | 498 kts | 157° |
| 2026-05-05 16:35 | 37.31826 | 26.42233 | 21291 ft | 495 kts | 157° |
| 2026-05-05 16:35 | 37.28685 | 26.43964 | 20511 ft | 492 kts | 157° |
| 2026-05-05 16:35 | 37.25560 | 26.45680 | 19745 ft | 489 kts | 156° |
| 2026-05-05 16:35 | 37.22449 | 26.47386 | 19043 ft | 484 kts | 156° |
| 2026-05-05 16:36 | 37.19386 | 26.49065 | 18343 ft | 481 kts | 156° |
| 2026-05-05 16:36 | 37.16407 | 26.50695 | 17541 ft | 468 kts | 156° |
| 2026-05-05 16:36 | 37.13462 | 26.52304 | 16822 ft | 452 kts | 156° |
| 2026-05-05 16:36 | 37.10632 | 26.53847 | 16188 ft | 437 kts | 156° |
| 2026-05-05 16:37 | 37.07896 | 26.55338 | 15577 ft | 423 kts | 156° |
| 2026-05-05 16:37 | 37.05210 | 26.56799 | 15013 ft | 420 kts | 156° |
| 2026-05-05 16:37 | 37.02527 | 26.58257 | 14425 ft | 419 kts | 156° |
| 2026-05-05 16:37 | 36.99866 | 26.59703 | 13871 ft | 416 kts | 156° |
| 2026-05-05 16:38 | 36.97220 | 26.61143 | 13282 ft | 413 kts | 156° |
| 2026-05-05 16:38 | 36.94600 | 26.62568 | 12736 ft | 408 kts | 156° |
| 2026-05-05 16:38 | 36.92006 | 26.63977 | 12192 ft | 405 kts | 156° |
| 2026-05-05 16:38 | 36.89435 | 26.65375 | 11646 ft | 401 kts | 156° |
| 2026-05-05 16:39 | 36.86905 | 26.66747 | 11367 ft | 390 kts | 156° |
| 2026-05-05 16:39 | 36.84511 | 26.68172 | 11233 ft | 374 kts | 149° |
| 2026-05-05 16:39 | 36.82418 | 26.69982 | 11116 ft | 359 kts | 138° |
| 2026-05-05 16:39 | 36.80667 | 26.72107 | 10977 ft | 344 kts | 129° |
| 2026-05-05 16:40 | 36.79092 | 26.74291 | 10862 ft | 333 kts | 130° |
| 2026-05-05 16:40 | 36.77566 | 26.76391 | 10715 ft | 320 kts | 130° |
| 2026-05-05 16:40 | 36.76089 | 26.78420 | 10343 ft | 313 kts | 130° |
| 2026-05-05 16:40 | 36.74639 | 26.80413 | 10275 ft | 310 kts | 129° |
| 2026-05-05 16:41 | 36.73193 | 26.82401 | 10188 ft | 310 kts | 129° |
| 2026-05-05 16:41 | 36.71744 | 26.84393 | 10059 ft | 309 kts | 129° |
| 2026-05-05 16:41 | 36.70299 | 26.86379 | 9719 ft | 312 kts | 129° |
| 2026-05-05 16:41 | 36.69052 | 26.88577 | 9291 ft | 307 kts | 115° |
| 2026-05-05 16:42 | 36.68108 | 26.90939 | 8827 ft | 303 kts | 112° |
| 2026-05-05 16:42 | 36.67174 | 26.93289 | 8228 ft | 302 kts | 112° |
| 2026-05-05 16:42 | 36.66238 | 26.95629 | 7678 ft | 301 kts | 112° |
| 2026-05-05 16:42 | 36.65306 | 26.97952 | 7095 ft | 300 kts | 112° |
| 2026-05-05 16:43 | 36.64379 | 27.00260 | 6538 ft | 298 kts | 112° |
| 2026-05-05 16:43 | 36.63450 | 27.02564 | 6136 ft | 296 kts | 112° |
| 2026-05-05 16:43 | 36.62539 | 27.04819 | 5936 ft | 287 kts | 112° |
| 2026-05-05 16:43 | 36.61661 | 27.06989 | 5798 ft | 275 kts | 112° |
| 2026-05-05 16:44 | 36.60819 | 27.09066 | 5701 ft | 260 kts | 112° |
| 2026-05-05 16:44 | 36.60039 | 27.11029 | 5568 ft | 246 kts | 107° |
| 2026-05-05 16:44 | 36.59682 | 27.13031 | 5461 ft | 231 kts | 85° |
| 2026-05-05 16:44 | 36.59850 | 27.14917 | 5183 ft | 209 kts | 68° |
| 2026-05-05 16:45 | 36.60338 | 27.16535 | 4879 ft | 192 kts | 62° |
| 2026-05-05 16:45 | 36.60803 | 27.18032 | 4622 ft | 183 kts | 63° |
| 2026-05-05 16:45 | 36.61322 | 27.19473 | 4352 ft | 180 kts | 50° |
| 2026-05-05 16:45 | 36.62217 | 27.20498 | 4106 ft | 174 kts | 25° |
| 2026-05-05 16:46 | 36.63353 | 27.20920 | 3864 ft | 170 kts | 2° |
| 2026-05-05 16:46 | 36.64492 | 27.20713 | 3636 ft | 169 kts | 340° |
| 2026-05-05 16:46 | 36.65514 | 27.19986 | 3409 ft | 170 kts | 330° |
| 2026-05-05 16:46 | 36.66509 | 27.19201 | 3170 ft | 169 kts | 330° |
| 2026-05-05 16:47 | 36.67497 | 27.18424 | 2931 ft | 168 kts | 329° |
| 2026-05-05 16:47 | 36.68481 | 27.17651 | 2704 ft | 167 kts | 329° |
| 2026-05-05 16:47 | 36.69447 | 27.16894 | 2458 ft | 159 kts | 329° |
| 2026-05-05 16:47 | 36.70362 | 27.16181 | 2255 ft | 152 kts | 329° |
| 2026-05-05 16:48 | 36.70961 | 27.15716 | 2123 ft | 150 kts | 329° |
| 2026-05-05 16:48 | 36.71837 | 27.15037 | 1958 ft | 147 kts | 329° |
| 2026-05-05 16:48 | 36.72704 | 27.14368 | 1743 ft | 146 kts | 328° |
| 2026-05-05 16:48 | 36.73558 | 27.13706 | 1550 ft | 147 kts | 328° |
| 2026-05-05 16:49 | 36.74425 | 27.13035 | 1345 ft | 147 kts | 328° |
| 2026-05-05 16:49 | 36.75295 | 27.12360 | 1149 ft | 148 kts | 327° |
| 2026-05-05 16:49 | 36.76167 | 27.11684 | 976 ft | 147 kts | 327° |
| 2026-05-05 16:49 | 36.77036 | 27.11006 | 779 ft | 146 kts | 326° |
| 2026-05-05 16:50 | 36.77898 | 27.10323 | 575 ft | 149 kts | 328° |
| 2026-05-05 16:50 | 36.78769 | 27.09653 | 410 ft | 144 kts | 326° |
| 2026-05-05 16:50 | 36.79453 | 27.09114 | 411 ft | 67 kts | 329° |
| 2026-05-05 16:50 | 36.79640 | 27.08991 | 411 ft | 16 kts | 354° |
| 2026-05-05 16:51 | 36.79755 | 27.08987 | 410 ft | 15 kts | 358° |
| 2026-05-05 16:51 | 36.79826 | 27.08984 | 417 ft | 1 kts | 358° |
| 2026-05-05 16:51 | 36.79837 | 27.08983 | 413 ft | 6 kts | 358° |
| 2026-05-05 16:52 | 36.79913 | 27.08980 | 419 ft | 12 kts | 358° |
| 2026-05-05 16:52 | 36.79986 | 27.08943 | 413 ft | 11 kts | 328° |
| 2026-05-05 16:52 | 36.80050 | 27.08893 | 416 ft | 11 kts | 328° |
| 2026-05-05 16:52 | 36.80094 | 27.08860 | 416 ft | 4 kts | 327° |
| 2026-05-05 16:53 | 36.80110 | 27.08859 | 410 ft | 3 kts | 25° |
| 2026-05-05 16:53 | 36.80130 | 27.08895 | 408 ft | 4 kts | 56° |
| 2026-05-05 16:53 | 36.80139 | 27.08913 | 413 ft | 1 kts | 58° |
| 2026-05-05 16:53 | 36.80144 | 27.08923 | 411 ft | 1 kts | 58° |
| 2026-05-05 16:54 | 36.80145 | 27.08926 | 412 ft | 0 kts | 58° |